Time;durP1;ratioP1;P1;durP2;ratioP2;P2;SDS_P1;SDS_P2;PMS_P1;PMS_P2;Temp;Humidity;BMP_temperature;BMP_pressure;BME280_temperature;BME280_humidity;BME280_pressure;Samples;Min_cycle;Max_cycle;Signal;HPM_P1;HPM_P2
2021/12/27 00:00:08;;;;;;;2.07;1.50;;;12.70;47.00;;;;;;5125643;27;48583;-17
2021/12/27 00:02:35;;;;;;;1.97;1.63;;;12.70;47.10;;;;;;5126250;27;47321;-17
2021/12/27 00:05:01;;;;;;;3.00;1.70;;;12.70;47.10;;;;;;5125907;27;46894;-17
2021/12/27 00:07:28;;;;;;;2.10;1.70;;;12.70;47.00;;;;;;5125966;27;47215;-17
2021/12/27 00:09:55;;;;;;;2.07;1.63;;;12.70;47.20;;;;;;5125829;27;46874;-17
2021/12/27 00:12:23;;;;;;;1.90;1.70;;;12.70;47.20;;;;;;5125709;27;47213;-17
2021/12/27 00:14:50;;;;;;;3.27;1.70;;;12.70;47.10;;;;;;5125815;27;47038;-17
2021/12/27 00:17:16;;;;;;;1.40;1.30;;;12.70;47.20;;;;;;5125967;27;46858;-17
2021/12/27 00:19:43;;;;;;;1.77;1.50;;;12.70;47.20;;;;;;5125371;27;49029;-17
2021/12/27 00:22:10;;;;;;;1.67;1.53;;;12.70;47.20;;;;;;5125913;27;46967;-17
2021/12/27 00:24:36;;;;;;;1.70;1.60;;;12.70;47.40;;;;;;5125477;27;46797;-17
2021/12/27 00:27:03;;;;;;;1.97;1.40;;;12.70;47.40;;;;;;5126114;27;46839;-17
2021/12/27 00:29:31;;;;;;;1.67;1.27;;;12.70;47.40;;;;;;5127222;27;49045;-16
2021/12/27 00:31:58;;;;;;;2.13;1.60;;;12.70;47.30;;;;;;5129098;27;46948;-16
2021/12/27 00:34:25;;;;;;;2.13;1.83;;;12.70;47.30;;;;;;5129242;27;46814;-17
2021/12/27 00:36:51;;;;;;;1.60;1.50;;;12.70;47.40;;;;;;5129461;27;47218;-18
2021/12/27 00:39:18;;;;;;;1.50;1.40;;;12.70;47.40;;;;;;5129155;27;49072;-17
2021/12/27 00:41:45;;;;;;;1.43;1.33;;;12.70;47.40;;;;;;5129048;27;47105;-17
2021/12/27 00:44:11;;;;;;;1.33;1.23;;;12.70;47.30;;;;;;5128562;27;46789;-17
2021/12/27 00:46:39;;;;;;;1.40;1.30;;;12.70;47.30;;;;;;5129121;27;46933;-17
2021/12/27 00:49:06;;;;;;;1.60;1.50;;;12.70;47.30;;;;;;5128853;27;48872;-17
2021/12/27 00:51:33;;;;;;;2.30;1.50;;;12.70;47.40;;;;;;5128846;27;46986;-17
2021/12/27 00:53:59;;;;;;;1.80;1.47;;;12.70;47.40;;;;;;5129029;27;46734;-17
2021/12/27 00:56:26;;;;;;;1.27;1.17;;;12.70;47.30;;;;;;5129142;27;47325;-17
2021/12/27 00:58:53;;;;;;;1.60;1.47;;;12.70;47.30;;;;;;5128606;27;47111;-16
2021/12/27 01:01:19;;;;;;;1.83;1.30;;;12.70;47.30;;;;;;5129060;27;46926;-17
2021/12/27 01:03:47;;;;;;;1.60;1.50;;;12.70;47.20;;;;;;5128972;27;46968;-17
2021/12/27 01:06:14;;;;;;;1.30;1.20;;;12.70;47.30;;;;;;5129014;27;46903;-17
2021/12/27 01:08:41;;;;;;;1.43;1.33;;;12.70;47.30;;;;;;5128656;27;48052;-17
2021/12/27 01:11:23;;;;;;;1.80;1.40;;;12.70;47.30;;;;;;5128780;27;46805;-17
2021/12/27 01:14:01;;;;;;;1.80;1.10;;;12.70;47.20;;;;;;5128422;27;47140;-17
2021/12/27 01:16:27;;;;;;;1.40;1.20;;;12.70;47.20;;;;;;5128862;27;47072;-16
2021/12/27 01:18:56;;;;;;;2.03;1.50;;;12.70;47.30;;;;;;5128522;27;49091;-17
2021/12/27 01:21:23;;;;;;;1.30;1.20;;;12.70;47.30;;;;;;5128237;27;46805;-16
2021/12/27 01:23:51;;;;;;;1.83;1.23;;;12.70;47.20;;;;;;5128284;27;46861;-18
2021/12/27 01:26:17;;;;;;;1.27;1.17;;;12.70;47.10;;;;;;5128752;27;46995;-16
2021/12/27 01:28:44;;;;;;;1.37;1.27;;;12.70;47.10;;;;;;5128199;27;48925;-16
2021/12/27 01:31:11;;;;;;;1.20;1.20;;;12.70;47.20;;;;;;5128168;27;46804;-17
2021/12/27 01:33:38;;;;;;;1.37;1.13;;;12.70;47.20;;;;;;5128472;27;46955;-17
2021/12/27 01:36:07;;;;;;;1.30;1.20;;;12.70;47.20;;;;;;5128577;27;47205;-18
2021/12/27 01:38:35;;;;;;;1.17;1.07;;;12.70;47.20;;;;;;5128106;27;48359;-16
2021/12/27 01:41:02;;;;;;;1.57;1.10;;;12.70;47.10;;;;;;5127900;27;46813;-16
2021/12/27 01:43:30;;;;;;;1.30;1.20;;;12.70;47.20;;;;;;5127909;27;46977;-17
2021/12/27 01:45:59;;;;;;;1.00;1.00;;;12.70;47.30;;;;;;5128025;27;46982;-17
2021/12/27 01:48:28;;;;;;;1.20;1.03;;;12.70;47.10;;;;;;5127705;27;48124;-17
2021/12/27 01:50:55;;;;;;;1.73;1.33;;;12.70;47.20;;;;;;5127841;27;46922;-16
2021/12/27 01:53:24;;;;;;;1.23;1.13;;;12.70;47.10;;;;;;5127873;27;46899;-17
2021/12/27 01:55:53;;;;;;;1.77;1.40;;;12.70;47.20;;;;;;5128018;27;47347;-17
2021/12/27 01:58:20;;;;;;;1.47;1.30;;;12.70;47.20;;;;;;5127767;27;48137;-17
2021/12/27 02:00:48;;;;;;;1.20;1.10;;;12.70;47.10;;;;;;5127569;27;46971;-17
2021/12/27 02:03:15;;;;;;;1.27;1.10;;;12.70;47.10;;;;;;5127656;27;46801;-17
2021/12/27 02:05:42;;;;;;;0.87;0.87;;;12.70;47.20;;;;;;5127886;27;47275;-17
2021/12/27 02:08:08;;;;;;;1.10;1.00;;;12.70;47.20;;;;;;5127471;27;46790;-17
2021/12/27 02:10:36;;;;;;;1.07;1.07;;;12.70;47.20;;;;;;5127628;27;46825;-17
2021/12/27 02:13:03;;;;;;;1.73;1.30;;;12.70;47.20;;;;;;5127438;27;46888;-17
2021/12/27 02:15:30;;;;;;;1.30;1.10;;;12.70;47.10;;;;;;5127882;27;47287;-17
2021/12/27 02:17:56;;;;;;;0.90;0.90;;;12.70;47.20;;;;;;5127618;27;47954;-17
2021/12/27 02:20:26;;;;;;;1.17;1.07;;;12.70;47.20;;;;;;5127361;27;47252;-17
2021/12/27 02:22:55;;;;;;;0.97;0.90;;;12.70;47.20;;;;;;5127364;27;46867;-17
2021/12/27 02:25:21;;;;;;;1.30;1.20;;;12.70;47.20;;;;;;5127356;27;46891;-16
2021/12/27 02:27:50;;;;;;;0.87;0.87;;;12.70;47.10;;;;;;5127361;27;49079;-18
2021/12/27 02:30:18;;;;;;;2.33;1.20;;;12.70;47.20;;;;;;5127121;27;47179;-17
2021/12/27 02:32:46;;;;;;;1.27;1.10;;;12.70;47.20;;;;;;5127753;27;46866;-17
2021/12/27 02:35:15;;;;;;;1.27;1.10;;;12.70;47.10;;;;;;5127307;27;47105;-16
2021/12/27 02:37:43;;;;;;;1.03;1.03;;;12.70;47.10;;;;;;5127332;27;48212;-17
2021/12/27 02:40:11;;;;;;;1.90;1.40;;;12.70;47.20;;;;;;5127286;27;46849;-16
2021/12/27 02:42:53;;;;;;;1.00;1.00;;;12.70;47.10;;;;;;5127232;27;46892;-17
2021/12/27 02:45:20;;;;;;;1.03;0.93;;;12.70;47.10;;;;;;5126762;27;47006;-17
2021/12/27 02:47:46;;;;;;;0.90;0.90;;;12.70;47.10;;;;;;5126763;27;49063;-18
2021/12/27 02:50:13;;;;;;;1.13;1.10;;;12.70;47.00;;;;;;5126842;27;47438;-17
2021/12/27 02:52:40;;;;;;;1.10;1.10;;;12.70;47.00;;;;;;5126074;27;46878;-17
2021/12/27 02:55:08;;;;;;;1.00;0.90;;;12.70;47.20;;;;;;5127117;27;46881;-16
2021/12/27 02:57:35;;;;;;;1.20;1.10;;;12.70;47.00;;;;;;5126918;27;48804;-17
2021/12/27 03:00:02;;;;;;;1.20;1.10;;;12.70;47.10;;;;;;5126725;27;46956;-17
2021/12/27 03:02:28;;;;;;;1.10;1.03;;;12.70;47.00;;;;;;5126790;27;46911;-17
2021/12/27 03:04:55;;;;;;;1.03;1.00;;;12.70;47.10;;;;;;5127061;27;46979;-17
2021/12/27 03:07:22;;;;;;;1.10;0.80;;;12.70;47.00;;;;;;5126493;27;47794;-17
2021/12/27 03:09:49;;;;;;;1.37;1.20;;;12.70;46.90;;;;;;5126510;27;47420;-17
2021/12/27 03:12:17;;;;;;;0.80;0.80;;;12.70;47.00;;;;;;5126946;27;46884;-17
2021/12/27 03:14:43;;;;;;;0.93;0.93;;;12.70;47.00;;;;;;5126705;27;47278;-16
2021/12/27 03:17:10;;;;;;;1.20;1.10;;;12.70;46.90;;;;;;5126713;27;48818;-17
2021/12/27 03:19:37;;;;;;;1.00;1.00;;;12.70;47.00;;;;;;5126481;27;47504;-17
2021/12/27 03:22:04;;;;;;;1.27;1.10;;;12.70;47.00;;;;;;5126737;27;46887;-16
2021/12/27 03:24:30;;;;;;;1.27;1.20;;;12.70;46.90;;;;;;5126656;27;47116;-17
2021/12/27 03:26:57;;;;;;;0.97;0.90;;;12.70;46.90;;;;;;5126412;27;48119;-18
2021/12/27 03:29:25;;;;;;;1.20;1.10;;;12.70;46.90;;;;;;5126694;27;46879;-17
2021/12/27 03:31:54;;;;;;;0.97;0.93;;;12.70;46.90;;;;;;5126589;27;46882;-17
2021/12/27 03:34:21;;;;;;;1.20;1.10;;;12.70;46.90;;;;;;5126613;27;46931;-16
2021/12/27 03:36:48;;;;;;;0.80;0.80;;;12.70;46.90;;;;;;5126443;27;47925;-16
2021/12/27 03:39:15;;;;;;;1.60;0.90;;;12.60;46.90;;;;;;5126336;27;47556;-17
2021/12/27 03:41:41;;;;;;;0.83;0.83;;;12.70;46.90;;;;;;5126627;27;46855;-17
2021/12/27 03:44:08;;;;;;;1.10;1.00;;;12.60;47.00;;;;;;5126138;27;47082;-16
2021/12/27 03:46:36;;;;;;;0.80;0.80;;;12.70;46.90;;;;;;5126320;27;49101;-17
2021/12/27 03:49:03;;;;;;;0.70;0.70;;;12.70;46.90;;;;;;5125961;27;47057;-16
2021/12/27 03:51:29;;;;;;;0.77;0.77;;;12.70;46.90;;;;;;5126173;27;46811;-17
2021/12/27 03:53:56;;;;;;;0.93;0.90;;;12.70;47.00;;;;;;5126325;27;47319;-17
2021/12/27 03:56:23;;;;;;;1.60;0.90;;;12.70;47.00;;;;;;5126172;27;48145;-16
2021/12/27 03:58:55;;;;;;;0.70;0.70;;;12.70;47.00;;;;;;5126039;27;46875;-17
2021/12/27 04:01:23;;;;;;;0.80;0.80;;;12.70;46.90;;;;;;5126462;27;46821;-17
2021/12/27 04:03:53;;;;;;;1.10;1.00;;;12.70;46.90;;;;;;5126513;27;46893;-17
2021/12/27 04:06:20;;;;;;;1.07;1.00;;;12.70;46.90;;;;;;5129377;27;48116;-17
2021/12/27 04:08:47;;;;;;;0.90;0.70;;;12.70;46.80;;;;;;5129514;27;46781;-16
2021/12/27 04:11:14;;;;;;;0.90;0.90;;;12.60;46.80;;;;;;5129659;27;46890;-17
2021/12/27 04:13:41;;;;;;;1.23;1.00;;;12.70;46.90;;;;;;5130023;27;47296;-16
2021/12/27 04:16:07;;;;;;;0.73;0.73;;;12.70;46.80;;;;;;5129574;27;48796;-17
2021/12/27 04:18:34;;;;;;;0.77;0.77;;;12.70;46.80;;;;;;5129306;27;46957;-16
2021/12/27 04:21:02;;;;;;;0.70;0.70;;;12.70;47.40;;;;;;5129400;27;46743;-17
2021/12/27 04:23:29;;;;;;;0.80;0.80;;;12.60;46.80;;;;;;5129384;27;47021;-18
2021/12/27 04:25:56;;;;;;;1.60;0.70;;;12.60;46.80;;;;;;5129397;27;49076;-16
2021/12/27 04:28:24;;;;;;;0.77;0.77;;;12.60;46.80;;;;;;5129044;27;46926;-17
2021/12/27 04:30:50;;;;;;;0.80;0.70;;;12.60;46.90;;;;;;5129164;27;46871;-17
2021/12/27 04:33:17;;;;;;;0.60;0.60;;;12.60;46.80;;;;;;5129582;27;47267;-17
2021/12/27 04:35:44;;;;;;;0.67;0.67;;;12.60;46.80;;;;;;5129184;27;48118;-16
2021/12/27 04:38:12;;;;;;;0.87;0.87;;;12.60;46.80;;;;;;5129274;27;47428;-16
2021/12/27 04:40:40;;;;;;;0.70;0.70;;;12.60;46.80;;;;;;5129225;27;46807;-17
2021/12/27 04:43:08;;;;;;;1.10;1.00;;;12.60;46.70;;;;;;5129352;27;46934;-17
2021/12/27 04:45:35;;;;;;;0.67;0.67;;;12.60;46.80;;;;;;5128648;27;47828;-16
2021/12/27 04:48:02;;;;;;;0.80;0.80;;;12.60;46.70;;;;;;5129153;27;46973;-17
2021/12/27 04:50:28;;;;;;;0.73;0.67;;;12.60;46.80;;;;;;5129174;27;46891;-17
2021/12/27 04:52:55;;;;;;;0.60;0.60;;;12.60;46.80;;;;;;5128954;27;46894;-17
2021/12/27 04:55:24;;;;;;;0.63;0.63;;;12.60;46.80;;;;;;5128452;27;48118;-17
2021/12/27 04:57:51;;;;;;;0.60;0.60;;;12.60;46.70;;;;;;5128964;27;46889;-17
2021/12/27 05:00:17;;;;;;;0.73;0.73;;;12.60;46.80;;;;;;5128545;27;46996;-17
2021/12/27 05:02:44;;;;;;;0.80;0.70;;;12.60;46.80;;;;;;5128843;27;46908;-18
2021/12/27 05:05:11;;;;;;;0.60;0.60;;;12.60;46.80;;;;;;5128544;27;49047;-17
2021/12/27 05:07:38;;;;;;;0.80;0.67;;;12.60;46.80;;;;;;5128460;27;46821;-17
2021/12/27 05:10:05;;;;;;;0.70;0.70;;;12.60;46.80;;;;;;5128492;27;47074;-17
2021/12/27 05:12:33;;;;;;;0.70;0.70;;;12.60;46.70;;;;;;5128662;27;47246;-17
2021/12/27 05:15:00;;;;;;;0.80;0.80;;;12.60;46.70;;;;;;5128218;27;49014;-16
2021/12/27 05:17:26;;;;;;;1.20;0.80;;;12.60;46.70;;;;;;5127941;27;46910;-17
2021/12/27 05:19:53;;;;;;;0.67;0.67;;;12.60;46.70;;;;;;5128214;27;47057;-17
2021/12/27 05:22:20;;;;;;;0.80;0.80;;;12.60;46.70;;;;;;5128865;27;47264;-17
2021/12/27 05:24:46;;;;;;;0.80;0.80;;;12.60;46.70;;;;;;5128267;27;47065;-17
2021/12/27 05:27:13;;;;;;;0.60;0.60;;;12.60;46.70;;;;;;5128178;27;46802;-17
2021/12/27 05:29:41;;;;;;;0.80;0.80;;;12.60;46.60;;;;;;5128221;27;46874;-17
2021/12/27 05:32:09;;;;;;;0.70;0.70;;;12.60;46.70;;;;;;5128286;27;46900;-17
2021/12/27 05:34:35;;;;;;;0.67;0.67;;;12.60;46.70;;;;;;5127950;27;48048;-17
2021/12/27 05:37:02;;;;;;;0.67;0.67;;;12.60;46.80;;;;;;5128417;27;46885;-18
2021/12/27 05:39:29;;;;;;;0.80;0.80;;;12.60;46.70;;;;;;5128285;27;46880;-17
2021/12/27 05:41:55;;;;;;;0.43;0.43;;;12.60;46.70;;;;;;5128304;27;47006;-17
2021/12/27 05:44:22;;;;;;;0.50;0.50;;;12.60;46.90;;;;;;5127128;27;48236;-17
2021/12/27 05:46:50;;;;;;;1.07;0.60;;;12.60;46.80;;;;;;5127960;27;46903;-17
2021/12/27 05:49:17;;;;;;;0.60;0.60;;;12.60;47.40;;;;;;5127889;27;46876;-17
2021/12/27 05:51:44;;;;;;;0.60;0.60;;;12.60;46.70;;;;;;5128306;27;47256;-16
2021/12/27 05:54:10;;;;;;;0.63;0.60;;;12.60;46.80;;;;;;5127991;27;47055;-17
2021/12/27 05:56:37;;;;;;;0.60;0.60;;;12.60;46.70;;;;;;5127711;27;47432;-17
2021/12/27 05:59:04;;;;;;;0.60;0.60;;;12.60;46.70;;;;;;5128019;27;46980;-17
2021/12/27 06:01:31;;;;;;;0.60;0.60;;;12.60;46.70;;;;;;5127837;27;47009;-17
2021/12/27 06:03:59;;;;;;;0.80;0.60;;;12.60;46.70;;;;;;5127508;27;48104;-17
2021/12/27 06:06:26;;;;;;;0.60;0.60;;;12.60;46.70;;;;;;5127435;27;46879;-17
2021/12/27 06:08:52;;;;;;;0.60;0.60;;;12.60;46.80;;;;;;5127311;27;46789;-16
2021/12/27 06:11:19;;;;;;;0.67;0.67;;;12.60;46.90;;;;;;5127604;27;47239;-17
2021/12/27 06:13:46;;;;;;;0.50;0.50;;;12.60;46.90;;;;;;5127622;27;48119;-17
2021/12/27 06:16:13;;;;;;;0.77;0.60;;;12.60;47.00;;;;;;5127329;27;46805;-17
2021/12/27 06:18:40;;;;;;;0.50;0.50;;;12.60;47.00;;;;;;5127232;27;46938;-17
2021/12/27 06:21:08;;;;;;;0.63;0.60;;;12.60;47.00;;;;;;5127783;27;46884;-17
2021/12/27 06:23:35;;;;;;;0.60;0.60;;;12.60;47.20;;;;;;5127031;27;46948;-17
2021/12/27 06:26:01;;;;;;;0.70;0.70;;;12.60;47.30;;;;;;5127071;27;46917;-17
2021/12/27 06:28:29;;;;;;;0.60;0.60;;;12.60;47.20;;;;;;5126790;27;46893;-17
2021/12/27 06:30:56;;;;;;;0.50;0.50;;;12.60;47.40;;;;;;5127344;27;47310;-18
2021/12/27 06:33:22;;;;;;;0.60;0.60;;;12.60;47.50;;;;;;5127004;27;48844;-17
2021/12/27 06:35:49;;;;;;;0.50;0.50;;;12.60;47.60;;;;;;5126917;27;46971;-18
2021/12/27 06:38:17;;;;;;;0.67;0.60;;;12.60;47.60;;;;;;5127299;27;47008;-16
2021/12/27 06:40:44;;;;;;;0.50;0.50;;;12.60;47.80;;;;;;5127014;27;46757;-17
2021/12/27 06:43:11;;;;;;;0.60;0.60;;;12.60;47.80;;;;;;5127279;27;48956;-17
2021/12/27 06:45:38;;;;;;;0.60;0.60;;;12.60;47.80;;;;;;5126409;27;46890;-17
2021/12/27 06:48:05;;;;;;;0.40;0.40;;;12.60;47.60;;;;;;5126945;27;46910;-16
2021/12/27 06:50:32;;;;;;;0.40;0.40;;;12.60;47.60;;;;;;5127249;27;46913;-17
2021/12/27 06:52:58;;;;;;;0.57;0.50;;;12.60;47.60;;;;;;5127071;27;48091;-17
2021/12/27 06:55:26;;;;;;;0.50;0.50;;;12.60;47.50;;;;;;5126840;27;46817;-17
2021/12/27 06:57:53;;;;;;;0.60;0.60;;;12.60;47.60;;;;;;5127071;27;46902;-18
2021/12/27 07:00:20;;;;;;;0.93;0.40;;;12.60;47.40;;;;;;5127200;27;47002;-17
2021/12/27 07:02:47;;;;;;;0.50;0.50;;;12.60;47.60;;;;;;5127070;27;49019;-17
2021/12/27 07:05:14;;;;;;;0.70;0.43;;;12.60;47.60;;;;;;5126633;27;46997;-16
2021/12/27 07:07:40;;;;;;;0.50;0.50;;;12.60;47.50;;;;;;5126769;27;46899;-18
2021/12/27 07:10:09;;;;;;;0.43;0.43;;;12.60;47.50;;;;;;5126591;27;47377;-17
2021/12/27 07:12:37;;;;;;;0.50;0.50;;;12.60;47.50;;;;;;5126554;27;47810;-17
2021/12/27 07:15:04;;;;;;;0.50;0.50;;;12.50;47.50;;;;;;5126656;27;46958;-17
2021/12/27 07:17:31;;;;;;;0.40;0.40;;;12.60;47.40;;;;;;5126507;27;46979;-17
2021/12/27 07:19:57;;;;;;;0.33;0.33;;;12.50;47.40;;;;;;5126667;27;46820;-16
2021/12/27 07:22:25;;;;;;;0.40;0.40;;;12.50;47.40;;;;;;5126502;27;49061;-17
2021/12/27 07:24:52;;;;;;;1.13;0.57;;;12.50;47.20;;;;;;5125745;27;47042;-17
2021/12/27 07:27:18;;;;;;;0.50;0.47;;;12.50;47.40;;;;;;5125265;27;46939;-18
2021/12/27 07:29:46;;;;;;;0.40;0.40;;;12.50;47.40;;;;;;5126356;27;47245;-17
2021/12/27 07:32:13;;;;;;;0.30;0.30;;;12.50;47.40;;;;;;5126106;27;48796;-17
2021/12/27 07:34:40;;;;;;;0.40;0.40;;;12.50;47.20;;;;;;5126041;27;47032;-17
2021/12/27 07:37:07;;;;;;;0.40;0.40;;;12.50;47.30;;;;;;5126356;27;46812;-17
2021/12/27 07:39:34;;;;;;;0.50;0.50;;;12.50;47.30;;;;;;5127662;27;47013;-17
2021/12/27 07:42:00;;;;;;;0.40;0.40;;;12.50;47.30;;;;;;5129525;27;47937;-17
2021/12/27 07:44:27;;;;;;;0.40;0.40;;;12.50;47.30;;;;;;5128909;27;47038;-17
2021/12/27 07:46:55;;;;;;;0.50;0.50;;;12.50;47.40;;;;;;5129801;27;46911;-18
2021/12/27 07:49:22;;;;;;;0.47;0.40;;;12.50;47.30;;;;;;5130018;27;46919;-17
2021/12/27 07:51:48;;;;;;;0.97;0.40;;;12.50;47.30;;;;;;5129965;27;48106;-17
2021/12/27 07:54:15;;;;;;;0.50;0.50;;;12.50;47.30;;;;;;5129765;27;47090;-17
2021/12/27 07:56:42;;;;;;;0.30;0.30;;;12.50;47.40;;;;;;5129771;27;46797;-17
2021/12/27 07:59:09;;;;;;;0.40;0.40;;;12.50;47.40;;;;;;5129767;27;46906;-17
2021/12/27 08:01:37;;;;;;;0.20;0.20;;;12.50;47.40;;;;;;5129521;27;47870;-17
2021/12/27 08:04:06;;;;;;;0.40;0.40;;;12.50;47.50;;;;;;5128805;27;46968;-17
2021/12/27 08:06:33;;;;;;;0.50;0.50;;;12.50;47.40;;;;;;5121017;27;46927;-17
2021/12/27 08:09:00;;;;;;;0.50;0.50;;;12.50;47.40;;;;;;5128717;27;47149;-17
2021/12/27 08:11:26;;;;;;;0.30;0.30;;;12.50;47.40;;;;;;5128771;27;47852;-17
2021/12/27 08:13:53;;;;;;;0.77;0.47;;;12.50;47.40;;;;;;5127728;27;47166;-17
2021/12/27 08:16:23;;;;;;;0.43;0.43;;;12.50;47.40;;;;;;5128657;27;47004;-17
2021/12/27 08:18:51;;;;;;;0.40;0.30;;;12.50;47.40;;;;;;5128777;27;47000;-17
2021/12/27 08:21:19;;;;;;;0.43;0.30;;;12.50;47.40;;;;;;5128592;27;47837;-18
2021/12/27 08:23:46;;;;;;;0.50;0.50;;;12.50;47.30;;;;;;5129068;27;47317;-17
2021/12/27 08:26:12;;;;;;;0.37;0.37;;;12.50;47.40;;;;;;5129491;27;46799;-17
2021/12/27 08:28:39;;;;;;;0.50;0.50;;;12.40;47.30;;;;;;5129711;27;47316;-16
2021/12/27 08:31:06;;;;;;;0.50;0.50;;;12.50;47.50;;;;;;5128628;27;47057;-17
2021/12/27 08:33:33;;;;;;;0.60;0.60;;;12.50;47.50;;;;;;5128789;27;47161;-17
2021/12/27 08:35:59;;;;;;;0.33;0.33;;;12.50;47.40;;;;;;5129392;27;46838;-17
2021/12/27 08:38:27;;;;;;;0.60;0.40;;;12.40;47.50;;;;;;5129426;27;46875;-18
2021/12/27 08:40:54;;;;;;;0.40;0.40;;;12.40;47.40;;;;;;5129267;27;48865;-17
2021/12/27 08:43:21;;;;;;;0.97;0.57;;;12.40;47.40;;;;;;5128802;27;47472;-16
2021/12/27 08:45:47;;;;;;;0.47;0.47;;;12.40;47.40;;;;;;5128774;27;47295;-17
2021/12/27 08:48:14;;;;;;;0.60;0.60;;;12.40;47.40;;;;;;5129269;27;47079;-16
2021/12/27 08:50:42;;;;;;;0.73;0.47;;;12.40;47.40;;;;;;5128380;27;47968;-17
2021/12/27 08:53:09;;;;;;;0.33;0.33;;;12.50;47.50;;;;;;5128720;27;47165;-17
2021/12/27 08:55:37;;;;;;;0.20;0.20;;;12.40;47.40;;;;;;5128325;27;46849;-17
2021/12/27 08:58:04;;;;;;;0.40;0.40;;;12.40;47.50;;;;;;5128803;27;46893;-17
2021/12/27 09:00:31;;;;;;;0.33;0.33;;;12.50;47.50;;;;;;5128558;27;47973;-16
2021/12/27 09:02:58;;;;;;;0.57;0.40;;;12.50;47.40;;;;;;5128175;27;47070;-16
2021/12/27 09:05:24;;;;;;;0.40;0.40;;;12.40;47.40;;;;;;5128394;27;46982;-17
2021/12/27 09:07:51;;;;;;;0.40;0.40;;;12.50;47.50;;;;;;5129128;27;47127;-18
2021/12/27 09:10:18;;;;;;;0.40;0.40;;;12.40;47.40;;;;;;5128461;27;47973;-17
2021/12/27 09:12:46;;;;;;;0.40;0.40;;;12.50;47.50;;;;;;5127984;27;46814;-17
2021/12/27 09:15:14;;;;;;;0.30;0.30;;;12.50;47.40;;;;;;5127928;27;46883;-17
2021/12/27 09:17:40;;;;;;;0.40;0.40;;;12.50;47.30;;;;;;5127660;27;47265;-17
2021/12/27 09:20:08;;;;;;;0.43;0.43;;;12.50;47.40;;;;;;5126891;27;47918;-17
2021/12/27 09:22:36;;;;;;;0.40;0.40;;;12.50;47.40;;;;;;5126783;27;46970;-17
2021/12/27 09:25:03;;;;;;;0.60;0.60;;;12.50;47.30;;;;;;5126733;27;46957;-17
2021/12/27 09:27:29;;;;;;;0.40;0.40;;;12.50;47.30;;;;;;5127205;27;47292;-18
2021/12/27 09:29:57;;;;;;;0.40;0.40;;;12.50;47.50;;;;;;5127467;27;47207;-17
2021/12/27 09:32:24;;;;;;;0.30;0.30;;;12.50;47.50;;;;;;5128421;27;46886;-18
2021/12/27 09:34:51;;;;;;;0.40;0.40;;;12.50;47.50;;;;;;5128390;27;47011;-17
2021/12/27 09:37:18;;;;;;;0.33;0.33;;;12.50;47.50;;;;;;5128537;27;46903;-17
2021/12/27 09:39:44;;;;;;;0.20;0.20;;;12.50;47.30;;;;;;5128158;27;47929;-17
2021/12/27 09:42:11;;;;;;;0.40;0.40;;;12.50;47.40;;;;;;5126331;27;47184;-17
2021/12/27 09:44:38;;;;;;;0.50;0.50;;;12.50;47.40;;;;;;5125270;27;47276;-17
2021/12/27 09:47:06;;;;;;;5.37;0.93;;;12.50;47.40;;;;;;5128101;27;47319;-17
2021/12/27 09:49:33;;;;;;;5.53;1.27;;;12.50;50.00;;;;;;5127425;27;47782;-17
2021/12/27 09:52:00;;;;;;;3.17;0.70;;;12.50;52.10;;;;;;5127484;27;47007;-17
2021/12/27 09:54:27;;;;;;;3.23;0.67;;;12.50;51.90;;;;;;5127258;27;47004;-17
2021/12/27 09:56:53;;;;;;;5.70;0.80;;;12.50;52.70;;;;;;5127525;27;47007;-17
2021/12/27 09:59:22;;;;;;;1.17;0.40;;;12.60;52.30;;;;;;5127388;27;48179;-17
2021/12/27 10:01:49;;;;;;;1.50;0.60;;;12.60;52.30;;;;;;5126894;27;46937;-17
2021/12/27 10:04:17;;;;;;;3.17;0.90;;;12.60;52.10;;;;;;5127515;27;46980;-18
2021/12/27 10:06:44;;;;;;;0.60;0.60;;;12.60;52.00;;;;;;5127610;27;46965;-18
2021/12/27 10:09:10;;;;;;;5.53;0.70;;;12.60;53.00;;;;;;5127639;27;47342;-17
2021/12/27 10:11:39;;;;;;;4.57;0.70;;;12.60;53.10;;;;;;5127532;27;47417;-18
2021/12/27 10:14:07;;;;;;;4.70;0.70;;;12.60;52.30;;;;;;5126913;27;47061;-17
2021/12/27 10:16:35;;;;;;;2.47;0.60;;;12.60;52.50;;;;;;5127626;27;47223;-17
2021/12/27 10:19:03;;;;;;;5.40;0.80;;;12.60;52.40;;;;;;5126849;27;46813;-18
2021/12/27 10:21:33;;;;;;;4.93;0.90;;;12.60;53.00;;;;;;5127091;27;46896;-17
2021/12/27 10:24:04;;;;;;;5.60;0.57;;;12.70;53.40;;;;;;5127154;27;46986;-17
2021/12/27 10:26:32;;;;;;;1.87;0.70;;;12.70;53.60;;;;;;5127456;27;46887;-17
2021/12/27 10:29:09;;;;;;;9.30;1.07;;;12.70;53.50;;;;;;5126569;27;49079;-17
2021/12/27 10:31:59;;;;;;;2.87;0.90;;;12.80;53.50;;;;;;5127441;27;46991;-17
2021/12/27 10:34:28;;;;;;;14.57;1.20;;;12.80;53.60;;;;;;5125811;27;47136;-18
2021/12/27 10:37:08;;;;;;;0.67;0.60;;;12.80;53.50;;;;;;5127337;27;46978;-18
2021/12/27 10:39:49;;;;;;;4.70;0.67;;;12.80;53.50;;;;;;5126325;27;48764;-18
2021/12/27 10:42:18;;;;;;;1.57;0.70;;;12.90;53.30;;;;;;5127413;27;46980;-17
2021/12/27 10:44:45;;;;;;;3.93;1.00;;;12.90;53.20;;;;;;5126765;27;47058;-24
2021/12/27 10:47:26;;;;;;;3.43;1.00;;;13.00;52.60;;;;;;5127228;27;46939;-18
2021/12/27 10:49:54;;;;;;;9.90;1.10;;;13.00;53.00;;;;;;5126833;27;47945;-17
2021/12/27 10:52:22;;;;;;;5.57;0.93;;;13.00;52.60;;;;;;5125128;27;46795;-18
2021/12/27 10:54:49;;;;;;;1.90;0.77;;;13.00;53.00;;;;;;5124815;27;46921;-17
2021/12/27 10:57:16;;;;;;;6.63;0.80;;;13.00;52.90;;;;;;5125630;27;47285;-18
2021/12/27 10:59:43;;;;;;;1.20;0.77;;;13.00;52.60;;;;;;5124615;27;46890;-18
2021/12/27 11:02:10;;;;;;;2.87;1.00;;;13.00;52.60;;;;;;5126541;27;47144;-18
2021/12/27 11:04:37;;;;;;;1.00;0.80;;;13.00;52.50;;;;;;5126537;27;46898;-17
2021/12/27 11:07:04;;;;;;;1.77;0.63;;;13.00;52.60;;;;;;5127155;27;46993;-17
2021/12/27 11:09:32;;;;;;;1.20;0.80;;;13.00;52.70;;;;;;5126715;27;47052;-17
2021/12/27 11:12:00;;;;;;;2.23;0.70;;;13.00;52.70;;;;;;5126704;27;46992;-18
2021/12/27 11:14:26;;;;;;;2.20;0.67;;;13.00;52.70;;;;;;5125573;27;46905;-17
2021/12/27 11:16:53;;;;;;;1.70;0.80;;;13.00;52.70;;;;;;5126879;27;46903;-17
2021/12/27 11:19:20;;;;;;;0.97;0.77;;;13.00;52.80;;;;;;5126515;27;48106;-17
2021/12/27 11:21:48;;;;;;;1.63;0.63;;;13.00;52.80;;;;;;5126368;27;46839;-18
2021/12/27 11:24:15;;;;;;;0.67;0.67;;;13.00;52.80;;;;;;5126620;27;46906;-18
2021/12/27 11:26:43;;;;;;;1.77;0.93;;;13.00;52.80;;;;;;5126901;27;46918;-18
2021/12/27 11:29:12;;;;;;;6.47;0.95;;;12.90;52.80;;;;;;5126094;27;47511;-19
2021/12/27 11:31:38;;;;;;;3.50;0.80;;;12.90;52.80;;;;;;5126429;27;47407;-18
2021/12/27 11:34:06;;;;;;;1.53;0.60;;;12.90;52.90;;;;;;5126420;27;47011;-18
2021/12/27 11:36:34;;;;;;;2.23;0.70;;;12.90;52.90;;;;;;5127665;27;46936;-17
2021/12/27 11:39:18;;;;;;;2.83;1.10;;;12.90;53.00;;;;;;5126668;27;47928;-19
2021/12/27 11:41:56;;;;;;;1.30;0.70;;;12.90;52.40;;;;;;5125756;27;46929;-17
2021/12/27 11:44:29;;;;;;;2.97;0.70;;;12.90;52.90;;;;;;5126119;27;46750;-18
2021/12/27 11:46:57;;;;;;;4.77;0.77;;;12.90;52.80;;;;;;5127091;27;46981;-18
2021/12/27 11:49:44;;;;;;;1.57;0.67;;;12.90;52.90;;;;;;5125574;27;48415;-18
2021/12/27 11:52:24;;;;;;;1.60;0.80;;;12.90;52.90;;;;;;5126084;27;46895;-18
2021/12/27 11:54:53;;;;;;;2.60;1.10;;;12.90;53.00;;;;;;5125770;27;46904;-17
2021/12/27 11:57:51;;;;;;;0.77;0.60;;;12.90;53.10;;;;;;5125728;27;46961;-18
2021/12/27 12:00:36;;;;;;;0.80;0.67;;;12.90;53.20;;;;;;5125765;27;48140;-17
2021/12/27 12:03:25;;;;;;;2.10;0.70;;;12.90;53.10;;;;;;5124916;27;47438;-18
2021/12/27 12:05:54;;;;;;;3.03;1.00;;;12.90;53.10;;;;;;5125623;27;47339;-17
2021/12/27 12:08:21;;;;;;;2.40;0.90;;;12.90;52.90;;;;;;5126224;27;47107;-18
2021/12/27 12:10:52;;;;;;;4.03;0.90;;;12.90;52.90;;;;;;5126168;27;46858;-17
2021/12/27 12:13:26;;;;;;;1.33;0.87;;;12.90;53.10;;;;;;5124882;27;46802;-17
2021/12/27 12:16:00;;;;;;;1.90;0.73;;;12.90;53.10;;;;;;5126009;27;46837;-18
2021/12/27 12:18:27;;;;;;;2.43;0.87;;;12.90;53.10;;;;;;5126447;27;46826;-17
2021/12/27 12:20:54;;;;;;;3.77;0.87;;;12.90;53.00;;;;;;5125746;27;47876;-18
2021/12/27 12:23:20;;;;;;;2.27;1.00;;;12.90;53.10;;;;;;5125820;27;46959;-17
2021/12/27 12:25:47;;;;;;;1.43;0.80;;;12.90;53.20;;;;;;5127796;27;46868;-17
2021/12/27 12:28:15;;;;;;;0.93;0.70;;;12.90;53.10;;;;;;5129641;27;47147;-17
2021/12/27 12:30:44;;;;;;;3.90;0.93;;;12.90;53.10;;;;;;5129457;27;48267;-18
2021/12/27 12:33:12;;;;;;;2.07;0.90;;;12.90;53.20;;;;;;5129747;27;47432;-17
2021/12/27 12:35:41;;;;;;;2.20;0.90;;;12.90;53.20;;;;;;5128917;27;46886;-17
2021/12/27 12:38:14;;;;;;;2.07;0.90;;;12.90;53.20;;;;;;5129709;27;46910;-17
2021/12/27 12:40:41;;;;;;;1.67;1.33;;;12.90;53.30;;;;;;5128815;27;49070;-17
2021/12/27 12:43:08;;;;;;;1.70;0.80;;;12.90;53.30;;;;;;5128933;27;46908;-18
2021/12/27 12:45:36;;;;;;;1.67;0.87;;;12.90;53.30;;;;;;5129102;27;46963;-17
2021/12/27 12:48:05;;;;;;;2.40;0.90;;;12.90;53.30;;;;;;5129534;27;46958;-17
2021/12/27 12:50:32;;;;;;;1.00;0.80;;;12.90;53.20;;;;;;5128812;27;46972;-17